sensor_id;sensor_type;location;lat;lon;timestamp;temperature;humidity
33095;DHT22;19459;53.044;8.910;2023-06-22T00:01:28;18.70;99.90
33095;DHT22;19459;53.044;8.910;2023-06-22T00:03:54;18.60;99.90
33095;DHT22;19459;53.044;8.910;2023-06-22T00:06:19;18.60;99.90
33095;DHT22;19459;53.044;8.910;2023-06-22T00:08:45;18.60;99.90
33095;DHT22;19459;53.044;8.910;2023-06-22T00:11:11;18.50;99.90
33095;DHT22;19459;53.044;8.910;2023-06-22T00:13:38;18.50;99.90
33095;DHT22;19459;53.044;8.910;2023-06-22T00:16:04;18.50;99.90
33095;DHT22;19459;53.044;8.910;2023-06-22T00:18:30;18.50;99.90
33095;DHT22;19459;53.044;8.910;2023-06-22T00:20:57;18.40;99.90
33095;DHT22;19459;53.044;8.910;2023-06-22T00:23:24;18.40;99.90
33095;DHT22;19459;53.044;8.910;2023-06-22T00:25:50;18.40;99.90
33095;DHT22;19459;53.044;8.910;2023-06-22T00:28:16;18.40;99.90
33095;DHT22;19459;53.044;8.910;2023-06-22T00:30:41;18.40;99.90
33095;DHT22;19459;53.044;8.910;2023-06-22T00:33:07;18.40;99.90
33095;DHT22;19459;53.044;8.910;2023-06-22T00:35:34;18.40;99.90
33095;DHT22;19459;53.044;8.910;2023-06-22T00:38:00;18.40;99.90
33095;DHT22;19459;53.044;8.910;2023-06-22T00:40:33;18.40;99.90
33095;DHT22;19459;53.044;8.910;2023-06-22T00:42:59;18.30;99.90
33095;DHT22;19459;53.044;8.910;2023-06-22T00:45:26;18.30;99.90
33095;DHT22;19459;53.044;8.910;2023-06-22T00:47:57;18.30;99.90
33095;DHT22;19459;53.044;8.910;2023-06-22T00:50:26;18.30;99.90
33095;DHT22;19459;53.044;8.910;2023-06-22T00:52:56;18.30;99.90
33095;DHT22;19459;53.044;8.910;2023-06-22T00:55:24;18.30;99.90
33095;DHT22;19459;53.044;8.910;2023-06-22T00:57:52;18.30;99.90
33095;DHT22;19459;53.044;8.910;2023-06-22T01:00:22;18.30;99.90
33095;DHT22;19459;53.044;8.910;2023-06-22T01:02:53;18.30;99.90
33095;DHT22;19459;53.044;8.910;2023-06-22T01:05:20;18.30;99.90
33095;DHT22;19459;53.044;8.910;2023-06-22T01:10:41;18.20;99.90
33095;DHT22;19459;53.044;8.910;2023-06-22T01:18:50;18.20;99.90
33095;DHT22;19459;53.044;8.910;2023-06-22T01:21:20;18.20;99.90
33095;DHT22;19459;53.044;8.910;2023-06-22T01:26:43;18.10;99.90
33095;DHT22;19459;53.044;8.910;2023-06-22T01:29:20;18.10;99.90
33095;DHT22;19459;53.044;8.910;2023-06-22T01:31:48;18.00;99.90
33095;DHT22;19459;53.044;8.910;2023-06-22T01:34:16;18.00;99.90
33095;DHT22;19459;53.044;8.910;2023-06-22T01:36:43;18.00;99.90
33095;DHT22;19459;53.044;8.910;2023-06-22T01:39:09;18.00;99.90
33095;DHT22;19459;53.044;8.910;2023-06-22T01:41:38;18.00;99.90
33095;DHT22;19459;53.044;8.910;2023-06-22T01:44:05;17.90;99.90
33095;DHT22;19459;53.044;8.910;2023-06-22T01:46:34;17.90;99.90
33095;DHT22;19459;53.044;8.910;2023-06-22T01:49:02;17.90;99.90
33095;DHT22;19459;53.044;8.910;2023-06-22T01:51:29;17.90;99.90
33095;DHT22;19459;53.044;8.910;2023-06-22T01:53:56;17.80;99.90
33095;DHT22;19459;53.044;8.910;2023-06-22T01:56:22;17.80;99.90
33095;DHT22;19459;53.044;8.910;2023-06-22T02:02:09;17.80;99.90
33095;DHT22;19459;53.044;8.910;2023-06-22T02:04:41;17.80;99.90
33095;DHT22;19459;53.044;8.910;2023-06-22T02:07:14;17.70;99.90
33095;DHT22;19459;53.044;8.910;2023-06-22T02:09:44;17.70;99.90
33095;DHT22;19459;53.044;8.910;2023-06-22T02:12:16;17.70;99.90
33095;DHT22;19459;53.044;8.910;2023-06-22T02:14:43;17.60;99.90
33095;DHT22;19459;53.044;8.910;2023-06-22T02:17:10;17.60;99.90
33095;DHT22;19459;53.044;8.910;2023-06-22T02:19:37;17.60;99.90
33095;DHT22;19459;53.044;8.910;2023-06-22T02:22:04;17.60;99.90
33095;DHT22;19459;53.044;8.910;2023-06-22T02:24:30;17.60;99.90
33095;DHT22;19459;53.044;8.910;2023-06-22T02:27:02;17.60;99.90
33095;DHT22;19459;53.044;8.910;2023-06-22T02:29:28;17.60;99.90
33095;DHT22;19459;53.044;8.910;2023-06-22T02:31:55;17.50;99.90
33095;DHT22;19459;53.044;8.910;2023-06-22T02:34:24;17.50;99.90
33095;DHT22;19459;53.044;8.910;2023-06-22T02:36:51;17.50;99.90
33095;DHT22;19459;53.044;8.910;2023-06-22T02:39:26;17.40;99.90
33095;DHT22;19459;53.044;8.910;2023-06-22T02:41:52;17.40;99.90
33095;DHT22;19459;53.044;8.910;2023-06-22T02:44:19;17.40;99.90
33095;DHT22;19459;53.044;8.910;2023-06-22T02:46:46;17.40;99.90
33095;DHT22;19459;53.044;8.910;2023-06-22T02:49:13;17.40;99.90
33095;DHT22;19459;53.044;8.910;2023-06-22T02:51:41;17.40;99.90
33095;DHT22;19459;53.044;8.910;2023-06-22T02:54:09;17.40;99.90
33095;DHT22;19459;53.044;8.910;2023-06-22T02:56:35;17.40;99.90
33095;DHT22;19459;53.044;8.910;2023-06-22T02:59:02;17.30;99.90
33095;DHT22;19459;53.044;8.910;2023-06-22T03:01:28;17.30;99.90
33095;DHT22;19459;53.044;8.910;2023-06-22T03:03:59;17.30;99.90
33095;DHT22;19459;53.044;8.910;2023-06-22T03:06:24;17.30;99.90
33095;DHT22;19459;53.044;8.910;2023-06-22T03:09:01;17.20;99.90
33095;DHT22;19459;53.044;8.910;2023-06-22T03:11:30;17.20;99.90
33095;DHT22;19459;53.044;8.910;2023-06-22T03:13:56;17.20;99.90
33095;DHT22;19459;53.044;8.910;2023-06-22T03:16:22;17.20;99.90
33095;DHT22;19459;53.044;8.910;2023-06-22T03:18:48;17.20;99.90
33095;DHT22;19459;53.044;8.910;2023-06-22T03:21:14;17.20;99.90
33095;DHT22;19459;53.044;8.910;2023-06-22T03:23:41;17.20;99.90
33095;DHT22;19459;53.044;8.910;2023-06-22T03:26:08;17.20;99.90
33095;DHT22;19459;53.044;8.910;2023-06-22T03:28:34;17.20;99.90
33095;DHT22;19459;53.044;8.910;2023-06-22T03:31:00;17.20;99.90
33095;DHT22;19459;53.044;8.910;2023-06-22T03:33:25;17.20;99.90
33095;DHT22;19459;53.044;8.910;2023-06-22T03:35:51;17.20;99.90
33095;DHT22;19459;53.044;8.910;2023-06-22T03:38:17;17.20;99.90
33095;DHT22;19459;53.044;8.910;2023-06-22T03:40:43;17.20;99.90
33095;DHT22;19459;53.044;8.910;2023-06-22T03:43:09;17.20;99.90
33095;DHT22;19459;53.044;8.910;2023-06-22T03:45:35;17.30;99.90
33095;DHT22;19459;53.044;8.910;2023-06-22T03:48:01;17.30;99.90
33095;DHT22;19459;53.044;8.910;2023-06-22T03:50:27;17.30;99.90
33095;DHT22;19459;53.044;8.910;2023-06-22T03:52:53;17.30;99.90
33095;DHT22;19459;53.044;8.910;2023-06-22T03:55:21;17.30;99.90
33095;DHT22;19459;53.044;8.910;2023-06-22T03:57:47;17.30;99.90
33095;DHT22;19459;53.044;8.910;2023-06-22T04:00:14;17.30;99.90
33095;DHT22;19459;53.044;8.910;2023-06-22T04:02:41;17.30;99.90
33095;DHT22;19459;53.044;8.910;2023-06-22T04:05:09;17.40;99.90
33095;DHT22;19459;53.044;8.910;2023-06-22T04:07:35;17.40;99.90
33095;DHT22;19459;53.044;8.910;2023-06-22T04:10:03;17.40;99.90
33095;DHT22;19459;53.044;8.910;2023-06-22T04:12:29;17.40;99.90
33095;DHT22;19459;53.044;8.910;2023-06-22T04:14:55;17.40;99.90
33095;DHT22;19459;53.044;8.910;2023-06-22T04:17:21;17.50;99.90
33095;DHT22;19459;53.044;8.910;2023-06-22T04:19:50;17.50;99.90
33095;DHT22;19459;53.044;8.910;2023-06-22T04:22:16;17.50;99.90
33095;DHT22;19459;53.044;8.910;2023-06-22T04:24:42;17.50;99.90
33095;DHT22;19459;53.044;8.910;2023-06-22T04:27:08;17.60;99.90
33095;DHT22;19459;53.044;8.910;2023-06-22T04:29:33;17.60;99.90
33095;DHT22;19459;53.044;8.910;2023-06-22T04:31:59;17.60;99.90
33095;DHT22;19459;53.044;8.910;2023-06-22T04:34:45;17.60;99.90
33095;DHT22;19459;53.044;8.910;2023-06-22T04:37:13;17.60;99.90
33095;DHT22;19459;53.044;8.910;2023-06-22T04:39:41;17.70;99.90
33095;DHT22;19459;53.044;8.910;2023-06-22T04:42:08;17.70;99.90
33095;DHT22;19459;53.044;8.910;2023-06-22T04:44:34;17.70;99.90
33095;DHT22;19459;53.044;8.910;2023-06-22T04:47:02;17.80;99.90
33095;DHT22;19459;53.044;8.910;2023-06-22T04:49:30;17.80;99.90
33095;DHT22;19459;53.044;8.910;2023-06-22T04:52:00;17.80;99.90
33095;DHT22;19459;53.044;8.910;2023-06-22T04:54:27;17.80;99.90
33095;DHT22;19459;53.044;8.910;2023-06-22T04:56:53;17.90;99.90
33095;DHT22;19459;53.044;8.910;2023-06-22T04:59:27;17.90;99.90
33095;DHT22;19459;53.044;8.910;2023-06-22T05:04:22;18.00;99.90
33095;DHT22;19459;53.044;8.910;2023-06-22T05:06:52;18.10;99.90
33095;DHT22;19459;53.044;8.910;2023-06-22T05:09:18;18.10;99.90
33095;DHT22;19459;53.044;8.910;2023-06-22T05:11:44;18.10;99.90
33095;DHT22;19459;53.044;8.910;2023-06-22T05:14:10;18.10;99.90
33095;DHT22;19459;53.044;8.910;2023-06-22T05:16:37;18.20;99.90
33095;DHT22;19459;53.044;8.910;2023-06-22T05:19:03;18.20;99.90
33095;DHT22;19459;53.044;8.910;2023-06-22T05:21:30;18.20;99.90
33095;DHT22;19459;53.044;8.910;2023-06-22T05:23:56;18.30;99.90
33095;DHT22;19459;53.044;8.910;2023-06-22T05:26:31;18.40;99.90
33095;DHT22;19459;53.044;8.910;2023-06-22T05:28:59;18.40;99.90
33095;DHT22;19459;53.044;8.910;2023-06-22T05:31:26;18.50;99.90
33095;DHT22;19459;53.044;8.910;2023-06-22T05:33:54;18.60;99.90
33095;DHT22;19459;53.044;8.910;2023-06-22T05:36:20;18.60;99.90
33095;DHT22;19459;53.044;8.910;2023-06-22T05:38:47;18.70;99.90
33095;DHT22;19459;53.044;8.910;2023-06-22T05:41:13;18.80;99.90
33095;DHT22;19459;53.044;8.910;2023-06-22T05:43:39;18.90;99.90
33095;DHT22;19459;53.044;8.910;2023-06-22T05:46:06;19.00;99.90
33095;DHT22;19459;53.044;8.910;2023-06-22T05:48:31;19.10;99.90
33095;DHT22;19459;53.044;8.910;2023-06-22T05:50:58;19.10;99.90
33095;DHT22;19459;53.044;8.910;2023-06-22T05:53:24;19.20;99.90
33095;DHT22;19459;53.044;8.910;2023-06-22T05:55:50;19.20;99.90
33095;DHT22;19459;53.044;8.910;2023-06-22T05:58:16;19.30;99.90
33095;DHT22;19459;53.044;8.910;2023-06-22T06:00:42;19.40;99.90
33095;DHT22;19459;53.044;8.910;2023-06-22T06:03:09;19.50;99.90
33095;DHT22;19459;53.044;8.910;2023-06-22T06:05:36;19.60;99.90
33095;DHT22;19459;53.044;8.910;2023-06-22T06:08:04;19.70;99.90
33095;DHT22;19459;53.044;8.910;2023-06-22T06:10:32;19.80;99.90
33095;DHT22;19459;53.044;8.910;2023-06-22T06:12:58;20.00;99.90
33095;DHT22;19459;53.044;8.910;2023-06-22T06:15:27;20.10;99.90
33095;DHT22;19459;53.044;8.910;2023-06-22T06:17:53;20.30;99.90
33095;DHT22;19459;53.044;8.910;2023-06-22T06:20:24;20.40;99.90
33095;DHT22;19459;53.044;8.910;2023-06-22T06:22:51;20.50;99.90
33095;DHT22;19459;53.044;8.910;2023-06-22T06:25:18;20.50;99.90
33095;DHT22;19459;53.044;8.910;2023-06-22T06:27:50;20.50;99.90
33095;DHT22;19459;53.044;8.910;2023-06-22T06:30:18;20.50;99.90
33095;DHT22;19459;53.044;8.910;2023-06-22T06:32:45;20.50;99.90
33095;DHT22;19459;53.044;8.910;2023-06-22T06:35:12;20.50;99.90
33095;DHT22;19459;53.044;8.910;2023-06-22T06:37:41;20.60;99.90
33095;DHT22;19459;53.044;8.910;2023-06-22T06:40:09;20.60;99.90
33095;DHT22;19459;53.044;8.910;2023-06-22T06:42:54;20.70;99.90
33095;DHT22;19459;53.044;8.910;2023-06-22T06:45:21;20.80;99.90
33095;DHT22;19459;53.044;8.910;2023-06-22T06:47:49;20.80;99.90
33095;DHT22;19459;53.044;8.910;2023-06-22T06:50:16;20.90;99.90
33095;DHT22;19459;53.044;8.910;2023-06-22T06:52:42;21.00;99.90
33095;DHT22;19459;53.044;8.910;2023-06-22T06:55:09;21.10;99.90
33095;DHT22;19459;53.044;8.910;2023-06-22T06:57:39;21.20;99.90
33095;DHT22;19459;53.044;8.910;2023-06-22T07:00:08;21.40;99.90
33095;DHT22;19459;53.044;8.910;2023-06-22T07:02:41;21.50;99.90
33095;DHT22;19459;53.044;8.910;2023-06-22T07:05:09;21.70;99.90
33095;DHT22;19459;53.044;8.910;2023-06-22T07:07:35;21.90;99.90
33095;DHT22;19459;53.044;8.910;2023-06-22T07:10:01;22.00;99.90
33095;DHT22;19459;53.044;8.910;2023-06-22T07:12:27;22.10;99.90
33095;DHT22;19459;53.044;8.910;2023-06-22T07:14:53;22.30;99.90
33095;DHT22;19459;53.044;8.910;2023-06-22T07:17:19;22.40;99.90
33095;DHT22;19459;53.044;8.910;2023-06-22T07:19:45;22.50;99.90
33095;DHT22;19459;53.044;8.910;2023-06-22T07:22:11;22.70;99.90
33095;DHT22;19459;53.044;8.910;2023-06-22T07:24:37;22.80;99.90
33095;DHT22;19459;53.044;8.910;2023-06-22T07:27:03;22.90;99.90
33095;DHT22;19459;53.044;8.910;2023-06-22T07:29:30;23.00;99.90
33095;DHT22;19459;53.044;8.910;2023-06-22T07:31:57;23.10;99.90
33095;DHT22;19459;53.044;8.910;2023-06-22T07:34:23;23.20;99.90
33095;DHT22;19459;53.044;8.910;2023-06-22T07:36:48;23.40;99.90
33095;DHT22;19459;53.044;8.910;2023-06-22T07:39:14;23.50;99.90
33095;DHT22;19459;53.044;8.910;2023-06-22T07:41:40;23.60;99.90
33095;DHT22;19459;53.044;8.910;2023-06-22T07:44:06;23.70;99.90
33095;DHT22;19459;53.044;8.910;2023-06-22T07:46:33;23.80;99.90
33095;DHT22;19459;53.044;8.910;2023-06-22T07:48:59;23.90;99.90
33095;DHT22;19459;53.044;8.910;2023-06-22T07:51:25;24.00;99.90
33095;DHT22;19459;53.044;8.910;2023-06-22T07:53:51;24.10;99.90
33095;DHT22;19459;53.044;8.910;2023-06-22T07:56:17;24.20;99.90
33095;DHT22;19459;53.044;8.910;2023-06-22T07:58:46;24.10;99.90
33095;DHT22;19459;53.044;8.910;2023-06-22T08:01:13;24.30;99.90
33095;DHT22;19459;53.044;8.910;2023-06-22T08:03:40;24.40;99.90
33095;DHT22;19459;53.044;8.910;2023-06-22T08:06:06;24.60;99.90
33095;DHT22;19459;53.044;8.910;2023-06-22T08:08:34;24.70;99.90
33095;DHT22;19459;53.044;8.910;2023-06-22T08:11:01;24.80;99.90
33095;DHT22;19459;53.044;8.910;2023-06-22T08:13:27;24.80;99.90
33095;DHT22;19459;53.044;8.910;2023-06-22T08:15:53;25.00;99.90
33095;DHT22;19459;53.044;8.910;2023-06-22T08:18:19;24.90;99.90
33095;DHT22;19459;53.044;8.910;2023-06-22T08:20:44;25.10;99.90
33095;DHT22;19459;53.044;8.910;2023-06-22T08:23:10;25.20;99.90
33095;DHT22;19459;53.044;8.910;2023-06-22T08:25:36;25.30;99.90
33095;DHT22;19459;53.044;8.910;2023-06-22T08:28:03;25.50;99.90
33095;DHT22;19459;53.044;8.910;2023-06-22T08:30:29;25.70;99.90
33095;DHT22;19459;53.044;8.910;2023-06-22T08:32:55;25.80;99.90
33095;DHT22;19459;53.044;8.910;2023-06-22T08:35:24;25.90;99.90
33095;DHT22;19459;53.044;8.910;2023-06-22T08:37:52;26.20;99.90
33095;DHT22;19459;53.044;8.910;2023-06-22T08:40:20;26.40;99.90
33095;DHT22;19459;53.044;8.910;2023-06-22T08:42:46;26.30;99.30
33095;DHT22;19459;53.044;8.910;2023-06-22T08:45:13;26.50;99.90
33095;DHT22;19459;53.044;8.910;2023-06-22T08:47:40;26.50;99.90
33095;DHT22;19459;53.044;8.910;2023-06-22T08:50:10;26.60;99.60
33095;DHT22;19459;53.044;8.910;2023-06-22T08:52:37;26.70;99.90
33095;DHT22;19459;53.044;8.910;2023-06-22T08:55:04;26.80;99.90
33095;DHT22;19459;53.044;8.910;2023-06-22T08:57:30;26.80;99.50
33095;DHT22;19459;53.044;8.910;2023-06-22T08:59:56;26.80;99.10
33095;DHT22;19459;53.044;8.910;2023-06-22T09:02:28;26.90;99.80
33095;DHT22;19459;53.044;8.910;2023-06-22T09:04:57;27.10;98.80
33095;DHT22;19459;53.044;8.910;2023-06-22T09:07:24;27.20;98.60
33095;DHT22;19459;53.044;8.910;2023-06-22T09:09:51;27.30;98.10
33095;DHT22;19459;53.044;8.910;2023-06-22T09:12:19;27.30;97.70
33095;DHT22;19459;53.044;8.910;2023-06-22T09:14:51;27.50;99.30
33095;DHT22;19459;53.044;8.910;2023-06-22T09:17:17;27.60;98.60
33095;DHT22;19459;53.044;8.910;2023-06-22T09:19:43;27.60;99.10
33095;DHT22;19459;53.044;8.910;2023-06-22T09:22:08;27.80;98.30
33095;DHT22;19459;53.044;8.910;2023-06-22T09:24:34;28.10;97.70
33095;DHT22;19459;53.044;8.910;2023-06-22T09:27:00;28.10;97.10
33095;DHT22;19459;53.044;8.910;2023-06-22T09:29:26;28.20;98.00
33095;DHT22;19459;53.044;8.910;2023-06-22T09:31:52;28.40;96.70
33095;DHT22;19459;53.044;8.910;2023-06-22T09:34:21;28.70;97.80
33095;DHT22;19459;53.044;8.910;2023-06-22T09:36:47;28.80;96.30
33095;DHT22;19459;53.044;8.910;2023-06-22T09:39:13;29.00;97.50
33095;DHT22;19459;53.044;8.910;2023-06-22T09:41:39;29.20;96.40
33095;DHT22;19459;53.044;8.910;2023-06-22T09:44:04;29.50;95.60
33095;DHT22;19459;53.044;8.910;2023-06-22T09:46:30;29.30;94.60
33095;DHT22;19459;53.044;8.910;2023-06-22T09:48:56;29.10;94.90
33095;DHT22;19459;53.044;8.910;2023-06-22T09:51:23;28.90;95.10
33095;DHT22;19459;53.044;8.910;2023-06-22T09:53:49;28.70;95.50
33095;DHT22;19459;53.044;8.910;2023-06-22T09:56:16;28.60;95.10
33095;DHT22;19459;53.044;8.910;2023-06-22T09:58:43;28.60;96.10
33095;DHT22;19459;53.044;8.910;2023-06-22T10:01:09;28.60;95.70
33095;DHT22;19459;53.044;8.910;2023-06-22T10:03:36;28.60;95.80
33095;DHT22;19459;53.044;8.910;2023-06-22T10:06:02;28.80;96.50
33095;DHT22;19459;53.044;8.910;2023-06-22T10:08:29;29.20;95.70
33095;DHT22;19459;53.044;8.910;2023-06-22T10:10:55;29.50;94.70
33095;DHT22;19459;53.044;8.910;2023-06-22T10:13:20;29.80;95.90
33095;DHT22;19459;53.044;8.910;2023-06-22T10:15:46;29.80;95.50
33095;DHT22;19459;53.044;8.910;2023-06-22T10:18:16;30.10;93.70
33095;DHT22;19459;53.044;8.910;2023-06-22T10:20:43;29.70;94.90
33095;DHT22;19459;53.044;8.910;2023-06-22T10:23:09;29.90;94.90
33095;DHT22;19459;53.044;8.910;2023-06-22T10:25:35;29.90;94.20
33095;DHT22;19459;53.044;8.910;2023-06-22T10:28:01;29.90;93.40
33095;DHT22;19459;53.044;8.910;2023-06-22T10:30:27;30.00;94.90
33095;DHT22;19459;53.044;8.910;2023-06-22T10:32:54;30.30;95.30
33095;DHT22;19459;53.044;8.910;2023-06-22T10:35:20;30.70;94.00
33095;DHT22;19459;53.044;8.910;2023-06-22T10:37:46;30.80;94.20
33095;DHT22;19459;53.044;8.910;2023-06-22T10:40:16;30.60;93.50
33095;DHT22;19459;53.044;8.910;2023-06-22T10:42:44;30.10;93.70
33095;DHT22;19459;53.044;8.910;2023-06-22T10:45:10;30.00;93.50
33095;DHT22;19459;53.044;8.910;2023-06-22T10:47:36;29.60;93.70
33095;DHT22;19459;53.044;8.910;2023-06-22T10:50:03;29.40;94.50
33095;DHT22;19459;53.044;8.910;2023-06-22T10:52:29;29.00;94.40
33095;DHT22;19459;53.044;8.910;2023-06-22T10:54:55;28.80;95.00
33095;DHT22;19459;53.044;8.910;2023-06-22T10:57:21;28.80;95.40
33095;DHT22;19459;53.044;8.910;2023-06-22T10:59:47;28.80;94.70
33095;DHT22;19459;53.044;8.910;2023-06-22T11:02:13;28.50;95.10
33095;DHT22;19459;53.044;8.910;2023-06-22T11:04:39;28.60;95.60
33095;DHT22;19459;53.044;8.910;2023-06-22T11:07:05;28.60;96.40
33095;DHT22;19459;53.044;8.910;2023-06-22T11:09:31;28.70;95.60
33095;DHT22;19459;53.044;8.910;2023-06-22T11:11:57;28.80;95.30
33095;DHT22;19459;53.044;8.910;2023-06-22T11:14:24;29.00;96.00
33095;DHT22;19459;53.044;8.910;2023-06-22T11:16:51;29.10;95.30
33095;DHT22;19459;53.044;8.910;2023-06-22T11:19:17;29.50;95.50
33095;DHT22;19459;53.044;8.910;2023-06-22T11:21:43;30.00;95.50
33095;DHT22;19459;53.044;8.910;2023-06-22T11:24:09;30.50;95.10
33095;DHT22;19459;53.044;8.910;2023-06-22T11:26:35;31.10;94.60
33095;DHT22;19459;53.044;8.910;2023-06-22T11:29:01;31.50;93.70
33095;DHT22;19459;53.044;8.910;2023-06-22T11:31:31;31.90;94.10
33095;DHT22;19459;53.044;8.910;2023-06-22T11:33:57;32.10;92.80
33095;DHT22;19459;53.044;8.910;2023-06-22T11:36:23;32.30;92.10
33095;DHT22;19459;53.044;8.910;2023-06-22T11:38:49;32.40;92.30
33095;DHT22;19459;53.044;8.910;2023-06-22T11:41:15;32.30;92.40
33095;DHT22;19459;53.044;8.910;2023-06-22T11:43:40;32.40;92.60
33095;DHT22;19459;53.044;8.910;2023-06-22T11:46:06;32.60;92.00
33095;DHT22;19459;53.044;8.910;2023-06-22T11:48:32;32.50;91.60
33095;DHT22;19459;53.044;8.910;2023-06-22T11:50:58;32.50;91.90
33095;DHT22;19459;53.044;8.910;2023-06-22T11:53:25;32.40;92.20
33095;DHT22;19459;53.044;8.910;2023-06-22T11:55:52;32.70;92.30
33095;DHT22;19459;53.044;8.910;2023-06-22T11:58:19;32.80;92.20
33095;DHT22;19459;53.044;8.910;2023-06-22T12:00:45;32.30;90.70
33095;DHT22;19459;53.044;8.910;2023-06-22T12:03:11;31.90;92.50
33095;DHT22;19459;53.044;8.910;2023-06-22T12:05:38;31.60;92.20
33095;DHT22;19459;53.044;8.910;2023-06-22T12:08:04;31.40;92.30
33095;DHT22;19459;53.044;8.910;2023-06-22T12:10:30;31.30;92.60
33095;DHT22;19459;53.044;8.910;2023-06-22T12:12:56;31.60;92.60
33095;DHT22;19459;53.044;8.910;2023-06-22T12:15:23;31.80;92.50
33095;DHT22;19459;53.044;8.910;2023-06-22T12:17:49;31.40;91.80
33095;DHT22;19459;53.044;8.910;2023-06-22T12:20:15;31.10;91.40
33095;DHT22;19459;53.044;8.910;2023-06-22T12:22:41;30.80;91.80
33095;DHT22;19459;53.044;8.910;2023-06-22T12:25:08;30.50;91.60
33095;DHT22;19459;53.044;8.910;2023-06-22T12:27:35;30.20;92.30
33095;DHT22;19459;53.044;8.910;2023-06-22T12:30:02;30.10;92.30
33095;DHT22;19459;53.044;8.910;2023-06-22T12:32:28;30.00;92.20
33095;DHT22;19459;53.044;8.910;2023-06-22T12:34:55;30.00;93.30
33095;DHT22;19459;53.044;8.910;2023-06-22T12:37:21;30.00;93.50
33095;DHT22;19459;53.044;8.910;2023-06-22T12:39:46;29.90;93.00
33095;DHT22;19459;53.044;8.910;2023-06-22T12:42:12;29.80;93.50
33095;DHT22;19459;53.044;8.910;2023-06-22T12:44:38;29.60;93.20
33095;DHT22;19459;53.044;8.910;2023-06-22T12:47:08;29.40;93.20
33095;DHT22;19459;53.044;8.910;2023-06-22T12:49:37;29.10;92.80
33095;DHT22;19459;53.044;8.910;2023-06-22T12:52:03;28.90;93.50
33095;DHT22;19459;53.044;8.910;2023-06-22T12:54:30;28.80;94.20
33095;DHT22;19459;53.044;8.910;2023-06-22T12:56:56;28.70;94.20
33095;DHT22;19459;53.044;8.910;2023-06-22T12:59:22;28.60;93.70
33095;DHT22;19459;53.044;8.910;2023-06-22T13:01:48;28.60;94.40
33095;DHT22;19459;53.044;8.910;2023-06-22T13:04:13;28.70;94.70
33095;DHT22;19459;53.044;8.910;2023-06-22T13:06:44;28.80;94.50
33095;DHT22;19459;53.044;8.910;2023-06-22T13:09:17;28.80;94.40
33095;DHT22;19459;53.044;8.910;2023-06-22T13:11:43;28.90;94.60
33095;DHT22;19459;53.044;8.910;2023-06-22T13:14:09;28.90;94.60
33095;DHT22;19459;53.044;8.910;2023-06-22T13:16:35;28.90;93.80
33095;DHT22;19459;53.044;8.910;2023-06-22T13:19:01;28.80;94.60
33095;DHT22;19459;53.044;8.910;2023-06-22T13:21:26;28.80;94.60
33095;DHT22;19459;53.044;8.910;2023-06-22T13:23:52;28.70;94.20
33095;DHT22;19459;53.044;8.910;2023-06-22T13:26:18;28.70;94.60
33095;DHT22;19459;53.044;8.910;2023-06-22T13:28:44;28.70;94.70
33095;DHT22;19459;53.044;8.910;2023-06-22T13:31:10;28.80;94.80
33095;DHT22;19459;53.044;8.910;2023-06-22T13:33:36;28.80;94.60
33095;DHT22;19459;53.044;8.910;2023-06-22T13:36:03;28.70;94.40
33095;DHT22;19459;53.044;8.910;2023-06-22T13:38:31;28.50;94.00
33095;DHT22;19459;53.044;8.910;2023-06-22T13:40:57;28.40;94.60
33095;DHT22;19459;53.044;8.910;2023-06-22T13:43:26;28.30;94.80
33095;DHT22;19459;53.044;8.910;2023-06-22T13:45:52;28.20;94.80
33095;DHT22;19459;53.044;8.910;2023-06-22T13:48:18;28.10;95.10
33095;DHT22;19459;53.044;8.910;2023-06-22T13:50:44;28.00;95.60
33095;DHT22;19459;53.044;8.910;2023-06-22T13:53:09;27.90;95.40
33095;DHT22;19459;53.044;8.910;2023-06-22T13:55:35;27.90;95.70
33095;DHT22;19459;53.044;8.910;2023-06-22T13:58:01;27.80;95.30
33095;DHT22;19459;53.044;8.910;2023-06-22T14:00:27;27.80;95.80
33095;DHT22;19459;53.044;8.910;2023-06-22T14:02:53;27.70;95.20
33095;DHT22;19459;53.044;8.910;2023-06-22T14:05:20;27.60;95.60
33095;DHT22;19459;53.044;8.910;2023-06-22T14:07:46;27.50;95.50
33095;DHT22;19459;53.044;8.910;2023-06-22T14:10:11;27.50;95.80
33095;DHT22;19459;53.044;8.910;2023-06-22T14:12:37;27.40;96.30
33095;DHT22;19459;53.044;8.910;2023-06-22T14:15:03;27.20;96.80
33095;DHT22;19459;53.044;8.910;2023-06-22T14:17:29;27.20;97.20
33095;DHT22;19459;53.044;8.910;2023-06-22T14:19:55;27.10;97.20
33095;DHT22;19459;53.044;8.910;2023-06-22T14:22:21;27.00;97.20
33095;DHT22;19459;53.044;8.910;2023-06-22T14:24:48;27.00;97.40
33095;DHT22;19459;53.044;8.910;2023-06-22T14:27:14;26.90;97.30
33095;DHT22;19459;53.044;8.910;2023-06-22T14:29:40;26.90;97.80
33095;DHT22;19459;53.044;8.910;2023-06-22T14:32:06;26.80;98.10
33095;DHT22;19459;53.044;8.910;2023-06-22T14:34:33;26.80;98.00
33095;DHT22;19459;53.044;8.910;2023-06-22T14:37:01;26.70;97.70
33095;DHT22;19459;53.044;8.910;2023-06-22T14:39:28;26.60;97.30
33095;DHT22;19459;53.044;8.910;2023-06-22T14:41:53;26.60;97.50
33095;DHT22;19459;53.044;8.910;2023-06-22T14:44:19;26.50;97.30
33095;DHT22;19459;53.044;8.910;2023-06-22T14:46:45;26.40;98.00
33095;DHT22;19459;53.044;8.910;2023-06-22T14:49:11;26.40;98.00
33095;DHT22;19459;53.044;8.910;2023-06-22T14:51:36;26.40;98.00
33095;DHT22;19459;53.044;8.910;2023-06-22T14:54:02;26.30;98.10
33095;DHT22;19459;53.044;8.910;2023-06-22T14:56:28;26.30;98.40
33095;DHT22;19459;53.044;8.910;2023-06-22T14:58:55;26.20;98.40
33095;DHT22;19459;53.044;8.910;2023-06-22T15:01:21;26.10;99.00
33095;DHT22;19459;53.044;8.910;2023-06-22T15:03:47;26.00;99.30
33095;DHT22;19459;53.044;8.910;2023-06-22T15:06:12;26.00;99.50
33095;DHT22;19459;53.044;8.910;2023-06-22T15:08:39;25.90;99.80
33095;DHT22;19459;53.044;8.910;2023-06-22T15:11:05;25.80;99.90
33095;DHT22;19459;53.044;8.910;2023-06-22T15:13:31;25.70;99.90
33095;DHT22;19459;53.044;8.910;2023-06-22T15:15:59;25.70;99.90
33095;DHT22;19459;53.044;8.910;2023-06-22T15:18:29;25.60;99.90
33095;DHT22;19459;53.044;8.910;2023-06-22T15:20:55;25.50;99.90
33095;DHT22;19459;53.044;8.910;2023-06-22T15:23:21;25.40;99.90
33095;DHT22;19459;53.044;8.910;2023-06-22T15:25:47;25.30;99.90
33095;DHT22;19459;53.044;8.910;2023-06-22T15:28:13;25.20;99.90
33095;DHT22;19459;53.044;8.910;2023-06-22T15:30:39;25.10;99.90
33095;DHT22;19459;53.044;8.910;2023-06-22T15:33:05;25.00;99.90
33095;DHT22;19459;53.044;8.910;2023-06-22T15:35:30;25.00;99.90
33095;DHT22;19459;53.044;8.910;2023-06-22T15:37:56;24.90;99.90
33095;DHT22;19459;53.044;8.910;2023-06-22T15:40:22;24.80;99.90
33095;DHT22;19459;53.044;8.910;2023-06-22T15:42:51;24.70;99.90
33095;DHT22;19459;53.044;8.910;2023-06-22T15:45:17;24.70;99.90